Ruso, ND

9:18 AM CST on December 19, 2014 (GMT -0600)
APRSWXNET Ruso ND US | Change Station
CLOSE
Current Station
Personal Weather Station
Location: Ruso, ND
Elevation: 2200 ft
Nearby Weather Stations

Elev 2200 ft 47.84 °N, 100.93 °W | Updated 48 minutes ago

Mostly Cloudy
Mostly Cloudy
23 °F
Feels Like 23 °F
N
2
Wind Variable Wind from West
Gusts 0.0 mph

Today
High -- | Low -- °F
--% Chance of Precip.
Yesterday
High -- | Low -- °F
Precip. -- in
8:28 AM 4:52 PM
Waning Crescent, 7% visible
Pressure 30.01 in
Visibility 5.0 miles
Clouds Overcast 500 ft
Windchill 23 °F
Dew Point 22 °F
Humidity 94%
Rainfall -999.00 in
Snow Depth Not available.
UV 0 out of 12
Pollen .10 out of 12
Air Quality Not available.
Flu Activity Not available.
METAR KMOT 191454Z 00000KT 5SM BR OVC005 M02/M03 A2993 RMK AO2 SLP160 T10221033 51002

More Conditions Fewer Conditions

Pressure 30.01 in
Visibility 5.0 miles
Clouds Overcast 500 ft
Windchill 23 °F
Dew Point 22 °F
Humidity 94%
Rainfall -999.00 in
Snow Depth Not available.
UV 0 out of 12
Pollen .10 out of 12
Air Quality Not available.
Flu Activity Not available.
METAR KMOT 191454Z 00000KT 5SM BR OVC005 M02/M03 A2993 RMK AO2 SLP160 T10221033 51002

More Conditions Fewer Conditions

10-Day Weather Forecast

Almanac

Astronomy

Dec. 19, 2014 Rise Set
Actual Time
Civil Twilight
Nautical Twilight
Astronomical Twilight
Moon
Length of Visible Light
Length of Day
Tomorrow will be .
, % of the Moon is Illuminated

Today's Extremes

State Highs State Lows

Community

WunderPhotos

Upload Photos

1,778,996 photos uploaded!

WunderBlogs® & News

Nearby

Air Quality

  Air Quality AQ Index Pollutant
Not available.

Snow Depth

Station Depth Elevation

Earthquake Activity

City Distance Mag. Time & Date
Minimum magnitude displayed is 2.5.

Coastal Water Temperatures

Place Temperature

Nearby Weather Stations